createdAt,value
2023-03-11T00:02:08.971Z,4.67
2023-03-11T00:04:39.544Z,3.50
2023-03-11T00:07:10.383Z,3.92
2023-03-11T00:09:41.316Z,2.78
2023-03-11T00:12:12.195Z,2.80
2023-03-11T00:14:45.391Z,2.80
2023-03-11T00:17:15.727Z,4.27
2023-03-11T00:19:45.978Z,6.93
2023-03-11T00:22:16.255Z,3.47
2023-03-11T00:24:46.526Z,4.30
2023-03-11T00:27:16.828Z,4.40
2023-03-11T00:29:49.786Z,2.77
2023-03-11T00:32:20.231Z,2.83
2023-03-11T00:34:50.608Z,3.23
2023-03-11T00:39:51.996Z,4.37
2023-03-11T00:42:22.313Z,2.73
2023-03-11T00:44:55.231Z,3.60
2023-03-11T00:47:28.667Z,3.10
2023-03-11T00:49:59.011Z,3.50
2023-03-11T00:55:02.451Z,4.33
2023-03-11T00:57:32.769Z,3.30
2023-03-11T01:00:07.104Z,3.95
2023-03-11T01:02:38.839Z,4.27
2023-03-11T01:05:10.616Z,3.88
2023-03-11T01:07:41.048Z,3.67
2023-03-11T01:10:14.317Z,3.57
2023-03-11T01:12:44.957Z,6.10
2023-03-11T01:15:24.220Z,4.18
2023-03-11T01:17:54.664Z,4.00
2023-03-11T01:20:25.801Z,4.40
2023-03-11T01:22:56.642Z,4.40
2023-03-11T01:25:27.864Z,4.85
2023-03-11T01:30:32.066Z,3.73
2023-03-11T01:33:02.348Z,4.67
2023-03-11T01:35:36.792Z,5.20
2023-03-11T01:38:07.129Z,4.73
2023-03-11T01:40:40.584Z,6.07
2023-03-11T01:43:51.621Z,7.17
2023-03-11T01:46:30.195Z,4.82
2023-03-11T01:49:04.048Z,4.07
2023-03-11T01:51:41.383Z,4.37
2023-03-11T01:54:17.768Z,4.17
2023-03-11T01:56:49.960Z,3.83
2023-03-11T01:59:25.865Z,3.73
2023-03-11T02:02:08.361Z,4.23
2023-03-11T02:04:40.216Z,5.13
2023-03-11T02:07:12.779Z,3.27
2023-03-11T02:09:43.544Z,5.00
2023-03-11T02:12:17.004Z,3.95
2023-03-11T02:14:51.242Z,4.33
2023-03-11T02:17:25.078Z,3.50
2023-03-11T02:20:12.858Z,3.43
2023-03-11T02:22:46.171Z,2.47
2023-03-11T02:25:30.113Z,4.13
2023-03-11T02:28:06.637Z,4.50
2023-03-11T02:30:39.164Z,4.37
2023-03-11T02:33:10.282Z,3.90
2023-03-11T02:38:11.497Z,4.55
2023-03-11T02:43:37.290Z,4.07
2023-03-11T02:46:10.255Z,4.13
2023-03-11T02:48:42.069Z,8.10
2023-03-11T02:51:12.809Z,4.15
2023-03-11T02:53:49.350Z,5.30
2023-03-11T02:56:19.908Z,4.67
2023-03-11T02:58:52.988Z,4.68
2023-03-11T03:01:24.112Z,5.47
2023-03-11T03:03:54.905Z,5.03
2023-03-11T03:06:25.628Z,7.82
2023-03-11T03:08:56.478Z,5.45
2023-03-11T03:11:26.821Z,5.13
2023-03-11T03:13:59.894Z,4.90
2023-03-11T03:16:30.381Z,5.90
2023-03-11T03:19:01.283Z,5.35
2023-03-11T03:21:31.681Z,7.60
2023-03-11T03:24:02.033Z,5.57
2023-03-11T03:26:32.368Z,6.20
2023-03-11T03:29:05.334Z,6.10
2023-03-11T03:31:36.177Z,6.30
2023-03-11T03:34:06.797Z,5.22
2023-03-11T03:36:37.230Z,6.03
2023-03-11T03:41:40.898Z,5.13
2023-03-11T03:44:14.855Z,5.40
2023-03-11T03:46:45.285Z,5.13
2023-03-11T03:49:16.172Z,5.85
2023-03-11T03:51:47.762Z,8.23
2023-03-11T03:54:30.053Z,5.53
2023-03-11T03:57:02.392Z,5.80
2023-03-11T03:59:38.861Z,5.83
2023-03-11T04:02:09.358Z,5.50
2023-03-11T04:04:39.819Z,6.03
2023-03-11T04:07:10.759Z,4.60
2023-03-11T04:09:42.916Z,5.53
2023-03-11T04:12:17.706Z,5.30
2023-03-11T04:14:51.929Z,5.23
2023-03-11T04:17:23.038Z,5.47
2023-03-11T04:19:54.991Z,6.07
2023-03-11T04:22:25.475Z,13.75
2023-03-11T04:24:55.936Z,5.20
2023-03-11T04:27:26.618Z,6.87
2023-03-11T04:29:59.656Z,6.40
2023-03-11T04:32:30.040Z,7.03
2023-03-11T04:35:00.748Z,5.10
2023-03-11T04:37:33.514Z,7.13
2023-03-11T04:40:05.646Z,5.67
2023-03-11T04:42:37.062Z,6.07
2023-03-11T04:45:13.441Z,6.50
2023-03-11T04:47:47.786Z,5.40
2023-03-11T04:50:19.753Z,5.73
2023-03-11T04:52:50.580Z,5.80
2023-03-11T04:55:21.792Z,6.38
2023-03-11T05:00:29.155Z,6.50
2023-03-11T05:03:07.480Z,5.35
2023-03-11T05:05:38.215Z,6.93
2023-03-11T05:08:10.799Z,5.10
2023-03-11T05:10:44.538Z,5.60
2023-03-11T05:13:18.002Z,6.47
2023-03-11T05:15:54.202Z,6.67
2023-03-11T05:18:24.919Z,6.20
2023-03-11T05:20:56.309Z,5.90
2023-03-11T05:23:29.770Z,6.17
2023-03-11T05:26:05.877Z,6.68
2023-03-11T05:28:36.846Z,6.60
2023-03-11T05:31:14.036Z,6.60
2023-03-11T05:33:45.061Z,6.43
2023-03-11T05:36:18.574Z,5.97
2023-03-11T05:38:49.431Z,5.25
2023-03-11T05:41:19.814Z,10.70
2023-03-11T05:46:24.272Z,8.90
2023-03-11T05:48:54.654Z,7.20
2023-03-11T05:51:26.033Z,6.45
2023-03-11T05:53:56.546Z,5.35
2023-03-11T05:56:36.316Z,7.63
2023-03-11T05:59:07.683Z,7.00
2023-03-11T06:01:43.517Z,8.80
2023-03-11T06:04:14.966Z,6.80
2023-03-11T06:06:45.960Z,7.13
2023-03-11T06:09:19.609Z,6.97
2023-03-11T06:11:52.328Z,6.07
2023-03-11T06:14:24.875Z,9.50
2023-03-11T06:17:00.613Z,8.10
2023-03-11T06:19:31.814Z,6.53
2023-03-11T06:22:02.216Z,6.78
2023-03-11T06:24:33.740Z,17.20
2023-03-11T06:27:04.296Z,26.77
2023-03-11T06:32:09.290Z,6.40
2023-03-11T06:34:39.883Z,7.07
2023-03-11T06:37:10.666Z,7.28
2023-03-11T06:39:43.342Z,7.13
2023-03-11T06:42:17.738Z,5.83
2023-03-11T06:44:50.539Z,5.50
2023-03-11T06:47:23.625Z,6.87
2023-03-11T06:49:54.444Z,6.60
2023-03-11T06:52:24.809Z,5.65
2023-03-11T06:54:55.109Z,5.97
2023-03-11T06:57:26.905Z,6.17
2023-03-11T06:59:59.783Z,6.07
2023-03-11T07:02:33.130Z,5.15
2023-03-11T07:05:03.879Z,5.33
2023-03-11T07:07:37.649Z,7.20
2023-03-11T07:10:09.499Z,5.30
2023-03-11T07:12:39.961Z,5.90
2023-03-11T07:15:14.180Z,37.80
2023-03-11T07:17:48.077Z,28.33
2023-03-11T07:20:19.052Z,5.93
2023-03-11T07:22:49.472Z,5.05
2023-03-11T07:25:20.160Z,6.82
2023-03-11T07:27:50.510Z,5.38
2023-03-11T07:30:21.866Z,5.17
2023-03-11T07:32:54.959Z,6.93
2023-03-11T07:35:25.267Z,5.40
2023-03-11T07:37:55.537Z,6.00
2023-03-11T07:40:25.973Z,6.83
2023-03-11T07:42:56.369Z,8.30
2023-03-11T07:45:27.048Z,6.13
2023-03-11T07:48:00.149Z,4.82
2023-03-11T07:50:30.693Z,7.07
2023-03-11T07:53:01.055Z,4.95
2023-03-11T07:55:31.373Z,5.63
2023-03-11T07:58:01.752Z,6.47
2023-03-11T08:00:32.340Z,8.45
2023-03-11T08:03:05.395Z,4.57
2023-03-11T08:05:37.277Z,30.20
2023-03-11T08:08:07.900Z,25.97
2023-03-11T08:10:39.920Z,8.10
2023-03-11T08:13:10.248Z,14.77
2023-03-11T08:15:40.869Z,7.87
2023-03-11T08:18:13.841Z,4.03
2023-03-11T08:20:45.508Z,6.47
2023-03-11T08:23:16.001Z,5.80
2023-03-11T08:25:46.421Z,7.28
2023-03-11T08:28:16.732Z,4.77
2023-03-11T08:30:47.145Z,4.90
2023-03-11T08:33:20.140Z,6.22
2023-03-11T08:35:50.862Z,5.97
2023-03-11T08:38:21.453Z,7.05
2023-03-11T08:40:52.079Z,4.53
2023-03-11T08:43:22.399Z,5.75
2023-03-11T08:45:52.949Z,4.57
2023-03-11T08:48:26.458Z,7.72
2023-03-11T08:50:57.200Z,4.43
2023-03-11T08:53:28.755Z,7.03
2023-03-11T08:55:59.092Z,7.30
2023-03-11T08:58:30.143Z,5.33
2023-03-11T09:01:00.496Z,6.05
2023-03-11T09:03:35.430Z,6.43
2023-03-11T09:06:09.314Z,5.70
2023-03-11T09:08:39.674Z,7.37
2023-03-11T09:11:10.515Z,4.37
2023-03-11T09:13:41.152Z,5.65
2023-03-11T09:16:12.571Z,5.10
2023-03-11T09:18:46.222Z,8.10
2023-03-11T09:21:16.636Z,7.97
2023-03-11T09:23:47.070Z,20.83
2023-03-11T09:26:18.862Z,17.83
2023-03-11T09:28:49.981Z,9.17
2023-03-11T09:31:21.676Z,7.78
2023-03-11T09:33:56.427Z,8.40
2023-03-11T09:36:26.892Z,7.40
2023-03-11T09:38:57.244Z,8.60
2023-03-11T09:41:55.286Z,9.60
2023-03-11T09:44:36.035Z,7.17
2023-03-11T09:47:24.558Z,24.23
2023-03-11T09:50:24.461Z,56.23
2023-03-11T09:53:15.926Z,7.33
2023-03-11T09:55:50.359Z,7.53
2023-03-11T09:58:29.454Z,7.63
2023-03-11T10:01:00.134Z,5.93
2023-03-11T10:03:39.352Z,9.48
2023-03-11T10:06:19.432Z,10.13
2023-03-11T10:08:57.478Z,10.77
2023-03-11T10:11:57.199Z,9.23
2023-03-11T10:14:57.463Z,9.37
2023-03-11T10:17:47.661Z,9.30
2023-03-11T10:20:26.428Z,8.37
2023-03-11T10:23:16.767Z,13.33
2023-03-11T10:26:00.096Z,8.60
2023-03-11T10:28:36.192Z,6.87
2023-03-11T10:31:21.916Z,9.27
2023-03-11T10:33:58.088Z,9.20
2023-03-11T10:36:40.961Z,6.20
2023-03-11T10:39:15.235Z,6.93
2023-03-11T10:41:52.854Z,8.30
2023-03-11T10:44:30.065Z,9.93
2023-03-11T10:47:00.776Z,9.03
2023-03-11T10:49:32.036Z,9.00
2023-03-11T10:54:38.667Z,6.73
2023-03-11T10:57:23.341Z,9.30
2023-03-11T10:59:55.995Z,6.25
2023-03-11T11:02:30.309Z,5.97
2023-03-11T11:05:32.831Z,8.32
2023-03-11T11:08:12.606Z,7.80
2023-03-11T11:10:55.305Z,10.90
2023-03-11T11:13:27.787Z,7.47
2023-03-11T11:16:02.583Z,10.73
2023-03-11T11:18:37.323Z,7.70
2023-03-11T11:21:11.502Z,8.00
2023-03-11T11:23:46.153Z,7.00
2023-03-11T11:26:25.805Z,8.10
2023-03-11T11:29:15.915Z,7.23
2023-03-11T11:31:48.587Z,11.53
2023-03-11T11:34:34.409Z,8.40
2023-03-11T11:37:07.786Z,11.37
2023-03-11T11:39:51.980Z,7.87
2023-03-11T11:42:27.728Z,9.90
2023-03-11T11:45:05.710Z,8.20
2023-03-11T11:47:39.443Z,6.80
2023-03-11T11:50:21.244Z,7.40
2023-03-11T11:52:57.951Z,8.80
2023-03-11T11:55:31.689Z,9.93
2023-03-11T11:58:05.653Z,7.93
2023-03-11T12:00:49.552Z,9.33
2023-03-11T12:04:16.599Z,7.57
2023-03-11T12:06:57.714Z,10.43
2023-03-11T12:09:39.103Z,9.05
2023-03-11T12:12:22.402Z,11.10
2023-03-11T12:15:07.557Z,10.43
2023-03-11T12:17:42.933Z,12.60
2023-03-11T12:20:24.393Z,7.68
2023-03-11T12:26:08.050Z,8.18
2023-03-11T12:28:48.536Z,6.68
2023-03-11T12:31:23.236Z,7.15
2023-03-11T12:33:59.361Z,9.20
2023-03-11T12:36:34.460Z,8.68
2023-03-11T12:39:08.889Z,7.47
2023-03-11T12:41:42.906Z,9.73
2023-03-11T12:44:29.256Z,6.75
2023-03-11T12:47:24.981Z,8.90
2023-03-11T12:49:57.634Z,8.95
2023-03-11T12:52:31.466Z,9.48
2023-03-11T12:55:34.602Z,8.23
2023-03-11T12:58:51.284Z,11.00
2023-03-11T13:01:50.434Z,6.82
2023-03-11T13:04:38.755Z,8.13
2023-03-11T13:07:45.075Z,9.10
2023-03-11T13:10:22.096Z,11.40
2023-03-11T13:12:53.707Z,7.20
2023-03-11T13:15:42.795Z,8.93
2023-03-11T13:18:21.542Z,11.63
2023-03-11T13:21:00.399Z,7.97
2023-03-11T13:23:40.633Z,8.40
2023-03-11T13:26:37.993Z,7.72
2023-03-11T13:29:49.400Z,9.35
2023-03-11T13:33:07.490Z,9.10
2023-03-11T13:35:53.620Z,7.50
2023-03-11T13:39:01.451Z,8.35
2023-03-11T13:41:37.302Z,9.20
2023-03-11T13:44:23.214Z,10.57
2023-03-11T13:47:00.246Z,9.00
2023-03-11T13:49:38.902Z,7.10
2023-03-11T13:52:15.889Z,8.57
2023-03-11T13:54:52.434Z,8.10
2023-03-11T13:57:30.461Z,9.57
2023-03-11T14:00:15.890Z,11.15
2023-03-11T14:02:51.368Z,7.47
2023-03-11T14:05:26.943Z,8.38
2023-03-11T14:07:57.625Z,7.95
2023-03-11T14:10:32.456Z,8.40
2023-03-11T14:13:18.986Z,8.45
2023-03-11T14:15:56.000Z,10.07
2023-03-11T14:18:35.796Z,8.88
2023-03-11T14:21:09.601Z,11.63
2023-03-11T14:23:46.485Z,10.82
2023-03-11T14:26:22.896Z,8.82
2023-03-11T14:28:56.128Z,9.65
2023-03-11T14:31:33.706Z,10.10
2023-03-11T14:34:07.757Z,9.30
2023-03-11T14:36:45.351Z,9.43
2023-03-11T14:39:37.824Z,9.05
2023-03-11T14:42:22.154Z,10.20
2023-03-11T14:44:58.901Z,8.88
2023-03-11T14:47:41.909Z,7.57
2023-03-11T14:50:19.863Z,12.98
2023-03-11T14:52:55.563Z,9.00
2023-03-11T14:55:30.345Z,8.25
2023-03-11T14:58:08.870Z,7.97
2023-03-11T15:00:45.411Z,9.90
2023-03-11T15:03:25.293Z,9.07
2023-03-11T15:05:59.846Z,9.60
2023-03-11T15:08:34.427Z,13.93
2023-03-11T15:11:16.895Z,10.02
2023-03-11T15:13:51.433Z,10.87
2023-03-11T15:16:32.522Z,9.63
2023-03-11T15:19:04.606Z,10.52
2023-03-11T15:21:34.890Z,9.77
2023-03-11T15:24:07.918Z,9.87
2023-03-11T15:26:39.154Z,12.23
2023-03-11T15:31:51.570Z,11.15
2023-03-11T15:34:36.064Z,8.20
2023-03-11T15:37:23.525Z,10.63
2023-03-11T15:39:55.024Z,10.70
2023-03-11T15:42:27.997Z,10.43
2023-03-11T15:45:12.341Z,8.17
2023-03-11T15:47:43.283Z,12.70
2023-03-11T15:50:25.260Z,10.50
2023-03-11T15:52:59.592Z,11.03
2023-03-11T15:55:30.814Z,12.03
2023-03-11T15:58:09.265Z,9.13
2023-03-11T16:00:50.624Z,13.10
2023-03-11T16:05:52.043Z,9.53
2023-03-11T16:08:22.488Z,10.55
2023-03-11T16:10:52.860Z,11.50
2023-03-11T16:13:23.182Z,9.23
2023-03-11T16:15:56.448Z,10.17
2023-03-11T16:18:26.820Z,9.40
2023-03-11T16:20:58.291Z,9.50
2023-03-11T16:23:36.166Z,9.00
2023-03-11T16:26:17.058Z,9.47
2023-03-11T16:28:47.557Z,9.50
2023-03-11T16:31:20.511Z,10.60
2023-03-11T16:33:50.871Z,9.67
2023-03-11T16:36:21.175Z,7.47
2023-03-11T16:38:53.301Z,9.60
2023-03-11T16:41:23.604Z,10.63
2023-03-11T16:43:53.949Z,7.90
2023-03-11T16:46:27.059Z,8.20
2023-03-11T16:48:57.521Z,10.03
2023-03-11T16:51:27.856Z,8.53
2023-03-11T16:53:58.301Z,8.30
2023-03-11T16:56:28.727Z,9.30
2023-03-11T16:58:59.194Z,10.48
2023-03-11T17:01:32.135Z,9.70
2023-03-11T17:04:02.541Z,8.17
2023-03-11T17:06:32.917Z,8.50
2023-03-11T17:09:03.345Z,7.23
2023-03-11T17:11:34.576Z,10.73
2023-03-11T17:14:15.923Z,10.47
2023-03-11T17:16:49.740Z,11.80
2023-03-11T17:19:20.077Z,9.67
2023-03-11T17:21:50.442Z,8.97
2023-03-11T17:24:21.270Z,11.50
2023-03-11T17:26:51.722Z,15.02
2023-03-11T17:29:22.158Z,9.68
2023-03-11T17:31:57.854Z,11.00
2023-03-11T17:34:28.339Z,10.43
2023-03-11T17:36:58.996Z,10.20
2023-03-11T17:39:29.659Z,10.73
2023-03-11T17:42:02.602Z,8.02
2023-03-11T17:44:48.317Z,8.60
2023-03-11T17:47:26.198Z,14.33
2023-03-11T17:49:57.758Z,13.07
2023-03-11T17:52:28.206Z,13.33
2023-03-11T17:54:58.616Z,10.87
2023-03-11T17:57:29.224Z,10.23
2023-03-11T18:00:04.267Z,12.15
2023-03-11T18:02:37.711Z,13.93
2023-03-11T18:05:09.855Z,16.23
2023-03-11T18:07:41.808Z,20.40
2023-03-11T18:10:14.889Z,14.53
2023-03-11T18:12:48.517Z,16.27
2023-03-11T18:15:22.754Z,16.20
2023-03-11T18:17:57.044Z,16.97
2023-03-11T18:20:27.362Z,15.03
2023-03-11T18:22:58.146Z,19.97
2023-03-11T18:25:28.517Z,17.95
2023-03-11T18:27:58.905Z,20.23
2023-03-11T18:30:29.431Z,18.63
2023-03-11T18:33:02.341Z,18.47
2023-03-11T18:35:32.732Z,16.20
2023-03-11T18:38:03.019Z,16.87
2023-03-11T18:40:33.534Z,15.43
2023-03-11T18:43:03.911Z,19.83
2023-03-11T18:45:34.669Z,15.93
2023-03-11T18:48:08.670Z,17.27
2023-03-11T18:50:38.988Z,15.30
2023-03-11T18:53:09.262Z,16.27
2023-03-11T18:55:39.659Z,15.67
2023-03-11T18:58:10.959Z,11.63
2023-03-11T19:03:15.612Z,13.33
2023-03-11T19:05:52.498Z,13.40
2023-03-11T19:08:22.869Z,16.13
2023-03-11T19:10:53.343Z,18.13
2023-03-11T19:13:23.852Z,17.17
2023-03-11T19:15:54.806Z,18.70
2023-03-11T19:18:27.796Z,14.32
2023-03-11T19:21:01.723Z,18.23
2023-03-11T19:23:32.787Z,22.30
2023-03-11T19:26:09.706Z,20.27
2023-03-11T19:28:40.321Z,18.47
2023-03-11T19:31:10.773Z,16.73
2023-03-11T19:33:47.062Z,17.27
2023-03-11T19:36:18.433Z,22.47
2023-03-11T19:41:23.185Z,22.93
2023-03-11T19:43:53.531Z,15.07
2023-03-11T19:46:25.181Z,14.00
2023-03-11T19:48:58.977Z,18.00
2023-03-11T19:51:38.757Z,13.07
2023-03-11T19:54:17.947Z,12.73
2023-03-11T19:56:49.019Z,14.80
2023-03-11T19:59:19.555Z,15.60
2023-03-11T20:01:50.065Z,19.52
2023-03-11T20:04:23.233Z,17.40
2023-03-11T20:06:53.662Z,23.70
2023-03-11T20:09:24.091Z,15.40
2023-03-11T20:11:54.653Z,14.73
2023-03-11T20:14:25.086Z,20.20
2023-03-11T20:16:55.535Z,15.77
2023-03-11T20:19:28.740Z,28.58
2023-03-11T20:21:59.281Z,16.07
2023-03-11T20:24:29.749Z,19.00
2023-03-11T20:27:00.212Z,15.87
2023-03-11T20:29:30.806Z,15.85
2023-03-11T20:32:01.424Z,17.40
2023-03-11T20:34:34.465Z,13.02
2023-03-11T20:37:05.012Z,21.67
2023-03-11T20:39:35.500Z,20.42
2023-03-11T20:42:05.874Z,15.53
2023-03-11T20:44:36.323Z,38.83
2023-03-11T20:47:06.959Z,20.63
2023-03-11T20:49:40.121Z,20.83
2023-03-11T20:52:10.624Z,12.87
2023-03-11T20:54:41.139Z,17.35
2023-03-11T20:57:12.100Z,15.55
2023-03-11T20:59:42.872Z,14.70
2023-03-11T21:02:14.532Z,15.43
2023-03-11T21:04:48.137Z,15.50
2023-03-11T21:07:18.587Z,12.90
2023-03-11T21:09:54.590Z,10.50
2023-03-11T21:12:25.188Z,14.23
2023-03-11T21:14:55.521Z,11.80
2023-03-11T21:17:25.958Z,15.63
2023-03-11T21:19:58.971Z,12.50
2023-03-11T21:22:29.764Z,11.73
2023-03-11T21:25:00.222Z,15.55
2023-03-11T21:27:30.654Z,13.55
2023-03-11T21:30:02.258Z,11.97
2023-03-11T21:32:34.473Z,13.87
2023-03-11T21:35:08.885Z,13.57
2023-03-11T21:37:39.330Z,11.57
2023-03-11T21:40:12.615Z,12.15
2023-03-11T21:42:43.010Z,10.87
2023-03-11T21:45:15.309Z,10.67
2023-03-11T21:47:45.761Z,12.23
2023-03-11T21:50:19.180Z,14.45
2023-03-11T21:52:49.595Z,31.63
2023-03-11T21:55:20.173Z,17.40
2023-03-11T21:57:50.577Z,12.18
2023-03-11T22:00:21.756Z,16.47
2023-03-11T22:05:25.175Z,15.43
2023-03-11T22:07:55.519Z,13.83
2023-03-11T22:10:26.230Z,13.03
2023-03-11T22:12:56.689Z,9.48
2023-03-11T22:15:27.458Z,13.13
2023-03-11T22:18:01.204Z,10.43
2023-03-11T22:20:34.533Z,11.07
2023-03-11T22:23:05.019Z,11.13
2023-03-11T22:25:35.514Z,13.10
2023-03-11T22:28:06.179Z,13.85
2023-03-11T22:30:36.697Z,11.20
2023-03-11T22:33:07.446Z,11.65
2023-03-11T22:35:40.719Z,11.93
2023-03-11T22:38:11.175Z,9.73
2023-03-11T22:40:41.552Z,10.90
2023-03-11T22:43:11.925Z,11.70
2023-03-11T22:45:42.600Z,10.57
2023-03-11T22:48:13.054Z,7.97
2023-03-11T22:50:47.267Z,11.50
2023-03-11T22:53:21.584Z,10.20
2023-03-11T22:55:52.404Z,9.87
2023-03-11T22:58:23.650Z,13.57
2023-03-11T23:03:24.160Z,8.77
2023-03-11T23:05:57.273Z,10.80
2023-03-11T23:08:27.722Z,10.17
2023-03-11T23:10:58.252Z,25.45
2023-03-11T23:13:29.015Z,10.27
2023-03-11T23:15:59.425Z,11.88
2023-03-11T23:18:29.837Z,6.93
2023-03-11T23:21:02.986Z,10.30
2023-03-11T23:23:33.619Z,11.30
2023-03-11T23:26:04.075Z,8.23
2023-03-11T23:28:34.391Z,8.33
2023-03-11T23:31:05.251Z,10.07
2023-03-11T23:33:35.641Z,10.18
2023-03-11T23:36:12.299Z,8.17
2023-03-11T23:38:42.707Z,7.60
2023-03-11T23:41:16.162Z,10.70
2023-03-11T23:43:47.067Z,9.87
2023-03-11T23:46:17.811Z,13.77
2023-03-11T23:48:48.222Z,10.32
2023-03-11T23:51:21.204Z,9.87
2023-03-11T23:53:51.586Z,10.87
2023-03-11T23:56:22.425Z,7.07
2023-03-11T23:58:52.851Z,8.77
